map of HMO home
HMO - Airport
Location
City:  Hermosillo, Sonora, México
Name:General Ignacio Pesqueira García International Airport
ICAO:MMHO
IATA:HMO

Details
Type:Airport (Aerodrome, Airfield)
Use:Public/Civil, Military, International (customs port of entry)
Latitude:29°05'45"N (29.095858)
Longitude:111°02'52"W (-111.047857)
Datum:WGS 1984
Elevation:627 ft (191 m)
Variation:9.31°E (WMM2015 magnetic declination)
-0.09° annual change
Runways:2
Longest:7546 × 148 ft (2300 × 45 m), paved

Time
Time Zone:UTC-7
Local Time:

Weather
METAR:MMHO 131640Z 00000KT 10SM SKC 18/08 A3021 RMK HZY
TAF:MMHO 130514Z 1306/1406 00000KT P6SM SKC
FM131800 36010KT P6SM SKC
BECMG 1403/1405 06005KT

Related Locations
Nearby:
Farthest:RRG: 11701 mi / 18831 km
Plaine Corail [Sir Gaëtan Duval Airport (Plaine Corail Airport)], Rodrigues Island, MU

Find:

   beyond  
but within

Other Information
Maps:
NOTAMs:
Links:
Sources:

  
  • flag of México
  • flag of Sonora
  

Sectional Chart

Flight Planning
at skyvector.com

Satellite Image

Google Maps Satellite view

 

Copyright © 2004-2018 Karl L. Swartz. All rights reserved.
The Great Circle Mapper name and logo are trademarks of the Great Circle Mapper.
All other trademarks mentioned herein belong to their respective owners.
Please see credits for attibutions and further copyright information.

  Follow gcmap on Facebook Follow gcmap on Twitter Follow gcmap on Google+ GCmap on LinkedIn

hCard Microformat

Geo Microformat